sensor_id;sensor_type;location;lat;lon;timestamp;temperature;humidity
60027;DHT22;45891;53.006;6.512;2022-07-15T00:00:36;12.70;99.90
60027;DHT22;45891;53.006;6.512;2022-07-15T00:03:02;12.60;99.90
60027;DHT22;45891;53.006;6.512;2022-07-15T00:05:29;12.70;99.90
60027;DHT22;45891;53.006;6.512;2022-07-15T00:07:55;12.70;99.90
60027;DHT22;45891;53.006;6.512;2022-07-15T00:10:24;12.70;99.90
60027;DHT22;45891;53.006;6.512;2022-07-15T00:15:21;12.70;99.90
60027;DHT22;45891;53.006;6.512;2022-07-15T00:17:47;12.80;99.90
60027;DHT22;45891;53.006;6.512;2022-07-15T00:20:15;12.80;99.90
60027;DHT22;45891;53.006;6.512;2022-07-15T00:22:42;12.80;99.90
60027;DHT22;45891;53.006;6.512;2022-07-15T00:25:09;12.90;99.90
60027;DHT22;45891;53.006;6.512;2022-07-15T00:27:36;12.90;99.90
60027;DHT22;45891;53.006;6.512;2022-07-15T00:30:05;12.80;99.90
60027;DHT22;45891;53.006;6.512;2022-07-15T00:32:31;12.90;99.90
60027;DHT22;45891;53.006;6.512;2022-07-15T00:34:58;12.90;99.90
60027;DHT22;45891;53.006;6.512;2022-07-15T00:37:24;13.00;99.90
60027;DHT22;45891;53.006;6.512;2022-07-15T00:39:50;13.00;99.90
60027;DHT22;45891;53.006;6.512;2022-07-15T00:42:16;13.00;99.90
60027;DHT22;45891;53.006;6.512;2022-07-15T00:45:03;13.00;99.90
60027;DHT22;45891;53.006;6.512;2022-07-15T00:47:29;13.10;99.90
60027;DHT22;45891;53.006;6.512;2022-07-15T00:49:56;13.10;99.90
60027;DHT22;45891;53.006;6.512;2022-07-15T00:52:22;13.00;99.90
60027;DHT22;45891;53.006;6.512;2022-07-15T00:54:51;13.10;99.90
60027;DHT22;45891;53.006;6.512;2022-07-15T00:57:19;13.10;99.90
60027;DHT22;45891;53.006;6.512;2022-07-15T00:59:47;13.10;99.90
60027;DHT22;45891;53.006;6.512;2022-07-15T01:02:14;13.10;99.90
60027;DHT22;45891;53.006;6.512;2022-07-15T01:04:40;13.10;99.90
60027;DHT22;45891;53.006;6.512;2022-07-15T01:07:06;13.10;99.90
60027;DHT22;45891;53.006;6.512;2022-07-15T01:09:32;13.10;99.90
60027;DHT22;45891;53.006;6.512;2022-07-15T01:11:58;13.00;99.90
60027;DHT22;45891;53.006;6.512;2022-07-15T01:14:25;13.00;99.90
60027;DHT22;45891;53.006;6.512;2022-07-15T01:16:51;12.90;99.90
60027;DHT22;45891;53.006;6.512;2022-07-15T01:19:18;12.90;99.90
60027;DHT22;45891;53.006;6.512;2022-07-15T01:21:44;12.80;99.90
60027;DHT22;45891;53.006;6.512;2022-07-15T01:24:10;12.80;99.90
60027;DHT22;45891;53.006;6.512;2022-07-15T01:26:37;12.80;99.90
60027;DHT22;45891;53.006;6.512;2022-07-15T01:29:03;12.80;99.90
60027;DHT22;45891;53.006;6.512;2022-07-15T01:31:29;12.80;99.90
60027;DHT22;45891;53.006;6.512;2022-07-15T01:33:55;12.80;99.90
60027;DHT22;45891;53.006;6.512;2022-07-15T01:36:21;12.80;99.90
60027;DHT22;45891;53.006;6.512;2022-07-15T01:38:47;12.80;99.90
60027;DHT22;45891;53.006;6.512;2022-07-15T01:41:14;12.80;99.90
60027;DHT22;45891;53.006;6.512;2022-07-15T01:43:40;12.80;99.90
60027;DHT22;45891;53.006;6.512;2022-07-15T01:46:07;12.80;99.90
60027;DHT22;45891;53.006;6.512;2022-07-15T01:48:33;12.80;99.90
60027;DHT22;45891;53.006;6.512;2022-07-15T01:51:17;12.80;99.90
60027;DHT22;45891;53.006;6.512;2022-07-15T01:53:44;12.90;99.90
60027;DHT22;45891;53.006;6.512;2022-07-15T01:56:10;12.90;99.90
60027;DHT22;45891;53.006;6.512;2022-07-15T01:58:36;12.90;99.90
60027;DHT22;45891;53.006;6.512;2022-07-15T02:01:03;12.90;99.90
60027;DHT22;45891;53.006;6.512;2022-07-15T02:03:29;12.90;99.90
60027;DHT22;45891;53.006;6.512;2022-07-15T02:05:55;12.90;99.90
60027;DHT22;45891;53.006;6.512;2022-07-15T02:08:21;12.90;99.90
60027;DHT22;45891;53.006;6.512;2022-07-15T02:10:47;12.90;99.90
60027;DHT22;45891;53.006;6.512;2022-07-15T02:13:14;12.80;99.90
60027;DHT22;45891;53.006;6.512;2022-07-15T02:15:41;12.90;99.90
60027;DHT22;45891;53.006;6.512;2022-07-15T02:18:08;12.80;99.90
60027;DHT22;45891;53.006;6.512;2022-07-15T02:20:34;12.80;99.90
60027;DHT22;45891;53.006;6.512;2022-07-15T02:23:01;12.80;99.90
60027;DHT22;45891;53.006;6.512;2022-07-15T02:25:29;12.80;99.90
60027;DHT22;45891;53.006;6.512;2022-07-15T02:27:58;12.70;99.90
60027;DHT22;45891;53.006;6.512;2022-07-15T02:30:26;12.70;99.90
60027;DHT22;45891;53.006;6.512;2022-07-15T02:32:52;12.70;99.90
60027;DHT22;45891;53.006;6.512;2022-07-15T02:35:18;12.70;99.90
60027;DHT22;45891;53.006;6.512;2022-07-15T02:37:45;12.60;99.90
60027;DHT22;45891;53.006;6.512;2022-07-15T02:40:13;12.60;99.90
60027;DHT22;45891;53.006;6.512;2022-07-15T02:42:39;12.50;99.90
60027;DHT22;45891;53.006;6.512;2022-07-15T02:45:06;12.50;99.90
60027;DHT22;45891;53.006;6.512;2022-07-15T02:47:32;12.50;99.90
60027;DHT22;45891;53.006;6.512;2022-07-15T02:49:58;12.50;99.90
60027;DHT22;45891;53.006;6.512;2022-07-15T02:52:24;12.40;99.90
60027;DHT22;45891;53.006;6.512;2022-07-15T02:54:50;12.40;99.90
60027;DHT22;45891;53.006;6.512;2022-07-15T02:57:16;12.30;99.90
60027;DHT22;45891;53.006;6.512;2022-07-15T02:59:43;12.30;99.90
60027;DHT22;45891;53.006;6.512;2022-07-15T03:02:09;12.30;99.90
60027;DHT22;45891;53.006;6.512;2022-07-15T03:04:35;12.20;99.90
60027;DHT22;45891;53.006;6.512;2022-07-15T03:07:01;12.20;99.90
60027;DHT22;45891;53.006;6.512;2022-07-15T03:09:27;12.20;99.90
60027;DHT22;45891;53.006;6.512;2022-07-15T03:11:53;12.20;99.90
60027;DHT22;45891;53.006;6.512;2022-07-15T03:14:20;12.10;99.90
60027;DHT22;45891;53.006;6.512;2022-07-15T03:16:46;12.10;99.90
60027;DHT22;45891;53.006;6.512;2022-07-15T03:19:12;12.10;99.90
60027;DHT22;45891;53.006;6.512;2022-07-15T03:21:38;12.10;99.90
60027;DHT22;45891;53.006;6.512;2022-07-15T03:24:04;12.10;99.90
60027;DHT22;45891;53.006;6.512;2022-07-15T03:26:33;12.10;99.90
60027;DHT22;45891;53.006;6.512;2022-07-15T03:28:59;12.20;99.90
60027;DHT22;45891;53.006;6.512;2022-07-15T03:31:26;12.30;99.90
60027;DHT22;45891;53.006;6.512;2022-07-15T03:33:53;12.30;99.90
60027;DHT22;45891;53.006;6.512;2022-07-15T03:36:21;12.30;99.90
60027;DHT22;45891;53.006;6.512;2022-07-15T03:38:47;12.30;99.90
60027;DHT22;45891;53.006;6.512;2022-07-15T03:41:15;12.30;99.90
60027;DHT22;45891;53.006;6.512;2022-07-15T03:43:41;12.20;99.90
60027;DHT22;45891;53.006;6.512;2022-07-15T03:46:07;12.20;99.90
60027;DHT22;45891;53.006;6.512;2022-07-15T03:48:33;12.20;99.90
60027;DHT22;45891;53.006;6.512;2022-07-15T03:51:00;12.10;99.90
60027;DHT22;45891;53.006;6.512;2022-07-15T03:53:26;12.10;99.90
60027;DHT22;45891;53.006;6.512;2022-07-15T03:55:52;12.10;99.90
60027;DHT22;45891;53.006;6.512;2022-07-15T03:58:18;12.10;99.90
60027;DHT22;45891;53.006;6.512;2022-07-15T04:00:44;12.00;99.90
60027;DHT22;45891;53.006;6.512;2022-07-15T04:03:10;12.00;99.90
60027;DHT22;45891;53.006;6.512;2022-07-15T04:05:37;12.00;99.90
60027;DHT22;45891;53.006;6.512;2022-07-15T04:08:04;12.00;99.90
60027;DHT22;45891;53.006;6.512;2022-07-15T04:10:30;12.00;99.90
60027;DHT22;45891;53.006;6.512;2022-07-15T04:12:57;11.90;99.90
60027;DHT22;45891;53.006;6.512;2022-07-15T04:15:24;11.90;99.90
60027;DHT22;45891;53.006;6.512;2022-07-15T04:17:50;11.90;99.90
60027;DHT22;45891;53.006;6.512;2022-07-15T04:20:16;11.90;99.90
60027;DHT22;45891;53.006;6.512;2022-07-15T04:22:44;11.90;99.90
60027;DHT22;45891;53.006;6.512;2022-07-15T04:25:16;11.90;99.90
60027;DHT22;45891;53.006;6.512;2022-07-15T04:27:43;12.00;99.90
60027;DHT22;45891;53.006;6.512;2022-07-15T04:30:10;12.00;99.90
60027;DHT22;45891;53.006;6.512;2022-07-15T04:32:36;12.00;99.90
60027;DHT22;45891;53.006;6.512;2022-07-15T04:35:03;12.00;99.90
60027;DHT22;45891;53.006;6.512;2022-07-15T04:37:29;12.10;99.90
60027;DHT22;45891;53.006;6.512;2022-07-15T04:39:55;12.20;99.90
60027;DHT22;45891;53.006;6.512;2022-07-15T04:42:22;12.20;99.90
60027;DHT22;45891;53.006;6.512;2022-07-15T04:44:48;12.20;99.90
60027;DHT22;45891;53.006;6.512;2022-07-15T04:47:15;12.30;99.90
60027;DHT22;45891;53.006;6.512;2022-07-15T04:49:41;12.30;99.90
60027;DHT22;45891;53.006;6.512;2022-07-15T04:52:26;12.30;99.90
60027;DHT22;45891;53.006;6.512;2022-07-15T04:54:53;12.30;99.90
60027;DHT22;45891;53.006;6.512;2022-07-15T04:57:20;12.30;99.90
60027;DHT22;45891;53.006;6.512;2022-07-15T04:59:47;12.40;99.90
60027;DHT22;45891;53.006;6.512;2022-07-15T05:02:13;12.40;99.90
60027;DHT22;45891;53.006;6.512;2022-07-15T05:04:40;12.40;99.90
60027;DHT22;45891;53.006;6.512;2022-07-15T05:07:06;12.50;99.90
60027;DHT22;45891;53.006;6.512;2022-07-15T05:09:33;12.50;99.90
60027;DHT22;45891;53.006;6.512;2022-07-15T05:12:00;12.50;99.90
60027;DHT22;45891;53.006;6.512;2022-07-15T05:14:26;12.60;99.90
60027;DHT22;45891;53.006;6.512;2022-07-15T05:16:52;12.60;99.90
60027;DHT22;45891;53.006;6.512;2022-07-15T05:19:18;12.70;99.90
60027;DHT22;45891;53.006;6.512;2022-07-15T05:21:44;12.80;99.90
60027;DHT22;45891;53.006;6.512;2022-07-15T05:24:10;13.00;99.90
60027;DHT22;45891;53.006;6.512;2022-07-15T05:26:37;13.00;99.90
60027;DHT22;45891;53.006;6.512;2022-07-15T05:29:03;13.20;99.90
60027;DHT22;45891;53.006;6.512;2022-07-15T05:31:29;13.30;99.90
60027;DHT22;45891;53.006;6.512;2022-07-15T05:33:55;13.40;99.90
60027;DHT22;45891;53.006;6.512;2022-07-15T05:36:21;13.40;99.90
60027;DHT22;45891;53.006;6.512;2022-07-15T05:38:47;13.60;99.90
60027;DHT22;45891;53.006;6.512;2022-07-15T05:41:13;13.70;99.90
60027;DHT22;45891;53.006;6.512;2022-07-15T05:43:39;13.70;99.90
60027;DHT22;45891;53.006;6.512;2022-07-15T05:46:05;13.80;99.90
60027;DHT22;45891;53.006;6.512;2022-07-15T05:48:32;14.00;99.90
60027;DHT22;45891;53.006;6.512;2022-07-15T05:50:58;14.10;99.90
60027;DHT22;45891;53.006;6.512;2022-07-15T05:53:24;14.10;99.90
60027;DHT22;45891;53.006;6.512;2022-07-15T05:55:50;14.10;99.90
60027;DHT22;45891;53.006;6.512;2022-07-15T05:58:18;14.20;99.90
60027;DHT22;45891;53.006;6.512;2022-07-15T06:00:44;14.20;99.90
60027;DHT22;45891;53.006;6.512;2022-07-15T06:03:10;14.30;99.90
60027;DHT22;45891;53.006;6.512;2022-07-15T06:05:37;14.40;99.90
60027;DHT22;45891;53.006;6.512;2022-07-15T06:08:03;14.40;99.90
60027;DHT22;45891;53.006;6.512;2022-07-15T06:10:29;14.50;99.90
60027;DHT22;45891;53.006;6.512;2022-07-15T06:12:55;14.50;99.90
60027;DHT22;45891;53.006;6.512;2022-07-15T06:15:21;14.60;99.90
60027;DHT22;45891;53.006;6.512;2022-07-15T06:17:49;14.50;99.90
60027;DHT22;45891;53.006;6.512;2022-07-15T06:20:15;14.50;99.90
60027;DHT22;45891;53.006;6.512;2022-07-15T06:22:41;14.50;99.90
60027;DHT22;45891;53.006;6.512;2022-07-15T06:25:08;14.50;99.90
60027;DHT22;45891;53.006;6.512;2022-07-15T06:27:35;14.60;99.90
60027;DHT22;45891;53.006;6.512;2022-07-15T06:30:01;14.60;99.90
60027;DHT22;45891;53.006;6.512;2022-07-15T06:32:27;14.70;99.90
60027;DHT22;45891;53.006;6.512;2022-07-15T06:34:54;14.70;99.90
60027;DHT22;45891;53.006;6.512;2022-07-15T06:37:20;15.00;99.90
60027;DHT22;45891;53.006;6.512;2022-07-15T06:39:47;15.20;99.90
60027;DHT22;45891;53.006;6.512;2022-07-15T06:42:13;15.30;99.90
60027;DHT22;45891;53.006;6.512;2022-07-15T06:44:39;15.30;99.90
60027;DHT22;45891;53.006;6.512;2022-07-15T06:47:06;15.30;99.90
60027;DHT22;45891;53.006;6.512;2022-07-15T06:49:33;15.50;99.90
60027;DHT22;45891;53.006;6.512;2022-07-15T06:52:01;15.60;99.90
60027;DHT22;45891;53.006;6.512;2022-07-15T06:54:27;15.90;99.90
60027;DHT22;45891;53.006;6.512;2022-07-15T06:56:53;16.30;99.90
60027;DHT22;45891;53.006;6.512;2022-07-15T06:59:20;16.60;99.90
60027;DHT22;45891;53.006;6.512;2022-07-15T07:01:47;16.90;99.90
60027;DHT22;45891;53.006;6.512;2022-07-15T07:04:13;17.00;99.90
60027;DHT22;45891;53.006;6.512;2022-07-15T07:06:39;17.30;99.90
60027;DHT22;45891;53.006;6.512;2022-07-15T07:09:05;17.50;99.90
60027;DHT22;45891;53.006;6.512;2022-07-15T07:11:31;17.60;99.90
60027;DHT22;45891;53.006;6.512;2022-07-15T07:13:58;17.80;99.90
60027;DHT22;45891;53.006;6.512;2022-07-15T07:16:26;18.00;99.90
60027;DHT22;45891;53.006;6.512;2022-07-15T07:18:52;18.10;99.90
60027;DHT22;45891;53.006;6.512;2022-07-15T07:21:18;18.10;99.90
60027;DHT22;45891;53.006;6.512;2022-07-15T07:23:45;18.20;99.90
60027;DHT22;45891;53.006;6.512;2022-07-15T07:26:12;18.40;99.90
60027;DHT22;45891;53.006;6.512;2022-07-15T07:28:39;18.30;99.90
60027;DHT22;45891;53.006;6.512;2022-07-15T07:31:07;18.40;99.90
60027;DHT22;45891;53.006;6.512;2022-07-15T07:33:33;18.50;99.90
60027;DHT22;45891;53.006;6.512;2022-07-15T07:36:00;18.50;98.60
60027;DHT22;45891;53.006;6.512;2022-07-15T07:38:28;18.80;99.10
60027;DHT22;45891;53.006;6.512;2022-07-15T07:40:54;19.10;99.40
60027;DHT22;45891;53.006;6.512;2022-07-15T07:43:20;19.20;99.80
60027;DHT22;45891;53.006;6.512;2022-07-15T07:45:47;19.20;98.40
60027;DHT22;45891;53.006;6.512;2022-07-15T07:48:13;19.10;97.60
60027;DHT22;45891;53.006;6.512;2022-07-15T07:50:40;18.90;97.20
60027;DHT22;45891;53.006;6.512;2022-07-15T07:53:06;18.70;98.50
60027;DHT22;45891;53.006;6.512;2022-07-15T07:55:32;18.60;98.20
60027;DHT22;45891;53.006;6.512;2022-07-15T07:57:59;18.40;98.20
60027;DHT22;45891;53.006;6.512;2022-07-15T08:00:26;18.10;97.90
60027;DHT22;45891;53.006;6.512;2022-07-15T08:02:55;17.90;98.40
60027;DHT22;45891;53.006;6.512;2022-07-15T08:05:22;17.70;99.00
60027;DHT22;45891;53.006;6.512;2022-07-15T08:07:49;17.60;99.30
60027;DHT22;45891;53.006;6.512;2022-07-15T08:10:16;17.50;99.70
60027;DHT22;45891;53.006;6.512;2022-07-15T08:12:42;17.30;99.80
60027;DHT22;45891;53.006;6.512;2022-07-15T08:15:10;17.40;99.90
60027;DHT22;45891;53.006;6.512;2022-07-15T08:17:38;17.90;99.90
60027;DHT22;45891;53.006;6.512;2022-07-15T08:20:06;18.50;99.90
60027;DHT22;45891;53.006;6.512;2022-07-15T08:22:34;19.10;98.80
60027;DHT22;45891;53.006;6.512;2022-07-15T08:25:01;19.60;98.60
60027;DHT22;45891;53.006;6.512;2022-07-15T08:27:27;19.50;97.50
60027;DHT22;45891;53.006;6.512;2022-07-15T08:29:53;19.30;96.70
60027;DHT22;45891;53.006;6.512;2022-07-15T08:32:21;18.90;96.50
60027;DHT22;45891;53.006;6.512;2022-07-15T08:34:48;18.60;97.00
60027;DHT22;45891;53.006;6.512;2022-07-15T08:37:14;18.40;97.30
60027;DHT22;45891;53.006;6.512;2022-07-15T08:39:40;18.30;97.40
60027;DHT22;45891;53.006;6.512;2022-07-15T08:42:06;18.00;97.40
60027;DHT22;45891;53.006;6.512;2022-07-15T08:44:33;17.80;97.80
60027;DHT22;45891;53.006;6.512;2022-07-15T08:47:03;17.80;97.90
60027;DHT22;45891;53.006;6.512;2022-07-15T08:49:31;17.80;98.10
60027;DHT22;45891;53.006;6.512;2022-07-15T08:52:00;17.60;98.20
60027;DHT22;45891;53.006;6.512;2022-07-15T08:54:29;17.70;98.40
60027;DHT22;45891;53.006;6.512;2022-07-15T08:56:56;17.90;98.50
60027;DHT22;45891;53.006;6.512;2022-07-15T08:59:23;18.40;98.20
60027;DHT22;45891;53.006;6.512;2022-07-15T09:01:50;19.10;97.50
60027;DHT22;45891;53.006;6.512;2022-07-15T09:04:18;19.60;96.20
60027;DHT22;45891;53.006;6.512;2022-07-15T09:06:46;20.10;95.80
60027;DHT22;45891;53.006;6.512;2022-07-15T09:09:35;20.50;93.20
60027;DHT22;45891;53.006;6.512;2022-07-15T09:12:05;20.30;91.40
60027;DHT22;45891;53.006;6.512;2022-07-15T09:14:33;19.80;93.20
60027;DHT22;45891;53.006;6.512;2022-07-15T09:17:20;19.70;94.30
60027;DHT22;45891;53.006;6.512;2022-07-15T09:22:30;19.10;94.40
60027;DHT22;45891;53.006;6.512;2022-07-15T09:25:08;18.90;94.70
60027;DHT22;45891;53.006;6.512;2022-07-15T09:27:40;18.80;95.00
60027;DHT22;45891;53.006;6.512;2022-07-15T09:33:14;18.80;95.00
60027;DHT22;45891;53.006;6.512;2022-07-15T09:39:01;19.00;95.30
60027;DHT22;45891;53.006;6.512;2022-07-15T09:41:38;18.90;95.30
60027;DHT22;45891;53.006;6.512;2022-07-15T09:44:06;18.90;95.10
60027;DHT22;45891;53.006;6.512;2022-07-15T09:46:59;18.80;95.30
60027;DHT22;45891;53.006;6.512;2022-07-15T09:51:55;18.70;94.70
60027;DHT22;45891;53.006;6.512;2022-07-15T09:56:52;18.80;95.00
60027;DHT22;45891;53.006;6.512;2022-07-15T09:59:19;18.80;94.80
60027;DHT22;45891;53.006;6.512;2022-07-15T10:01:46;18.90;94.50
60027;DHT22;45891;53.006;6.512;2022-07-15T10:04:15;18.90;94.50
60027;DHT22;45891;53.006;6.512;2022-07-15T10:06:42;18.80;94.40
60027;DHT22;45891;53.006;6.512;2022-07-15T10:09:09;18.70;94.40
60027;DHT22;45891;53.006;6.512;2022-07-15T10:11:40;18.60;95.00
60027;DHT22;45891;53.006;6.512;2022-07-15T10:20:17;18.70;95.10
60027;DHT22;45891;53.006;6.512;2022-07-15T10:28:17;19.00;95.60
60027;DHT22;45891;53.006;6.512;2022-07-15T10:30:45;19.30;95.70
60027;DHT22;45891;53.006;6.512;2022-07-15T10:33:19;19.90;95.00
60027;DHT22;45891;53.006;6.512;2022-07-15T10:35:49;20.40;94.60
60027;DHT22;45891;53.006;6.512;2022-07-15T10:38:26;20.80;93.70
60027;DHT22;45891;53.006;6.512;2022-07-15T10:43:47;20.70;93.00
60027;DHT22;45891;53.006;6.512;2022-07-15T10:54:50;20.50;92.20
60027;DHT22;45891;53.006;6.512;2022-07-15T10:56:56;20.40;91.10
60027;DHT22;45891;53.006;6.512;2022-07-15T10:59:24;20.30;92.10
60027;DHT22;45891;53.006;6.512;2022-07-15T11:04:30;20.40;91.70
60027;DHT22;45891;53.006;6.512;2022-07-15T11:12:20;20.30;90.90
60027;DHT22;45891;53.006;6.512;2022-07-15T11:14:53;20.30;91.40
60027;DHT22;45891;53.006;6.512;2022-07-15T11:20:21;20.10;91.80
60027;DHT22;45891;53.006;6.512;2022-07-15T11:22:50;20.10;90.90
60027;DHT22;45891;53.006;6.512;2022-07-15T11:25:38;20.00;91.60
60027;DHT22;45891;53.006;6.512;2022-07-15T11:28:06;20.10;90.60
60027;DHT22;45891;53.006;6.512;2022-07-15T11:30:44;20.10;91.20
60027;DHT22;45891;53.006;6.512;2022-07-15T11:33:13;20.10;91.40
60027;DHT22;45891;53.006;6.512;2022-07-15T11:35:51;20.30;91.40
60027;DHT22;45891;53.006;6.512;2022-07-15T11:38:20;20.50;90.80
60027;DHT22;45891;53.006;6.512;2022-07-15T11:41:00;20.60;89.60
60027;DHT22;45891;53.006;6.512;2022-07-15T11:43:45;20.50;87.40
60027;DHT22;45891;53.006;6.512;2022-07-15T11:46:31;20.40;89.10
60027;DHT22;45891;53.006;6.512;2022-07-15T11:48:58;20.50;87.90
60027;DHT22;45891;53.006;6.512;2022-07-15T11:51:29;20.60;88.50
60027;DHT22;45891;53.006;6.512;2022-07-15T11:53:57;20.50;86.70
60027;DHT22;45891;53.006;6.512;2022-07-15T11:56:24;20.60;86.40
60027;DHT22;45891;53.006;6.512;2022-07-15T11:58:53;20.60;86.10
60027;DHT22;45891;53.006;6.512;2022-07-15T12:01:25;20.90;86.70
60027;DHT22;45891;53.006;6.512;2022-07-15T12:03:55;21.20;86.70
60027;DHT22;45891;53.006;6.512;2022-07-15T12:06:27;21.50;85.70
60027;DHT22;45891;53.006;6.512;2022-07-15T12:08:59;21.60;81.60
60027;DHT22;45891;53.006;6.512;2022-07-15T12:14:20;21.80;82.60
60027;DHT22;45891;53.006;6.512;2022-07-15T12:16:53;22.00;78.40
60027;DHT22;45891;53.006;6.512;2022-07-15T12:19:24;21.80;76.40
60027;DHT22;45891;53.006;6.512;2022-07-15T12:21:55;21.90;79.50
60027;DHT22;45891;53.006;6.512;2022-07-15T12:24:47;21.80;77.90
60027;DHT22;45891;53.006;6.512;2022-07-15T12:27:13;21.90;79.60
60027;DHT22;45891;53.006;6.512;2022-07-15T12:29:41;22.30;76.70
60027;DHT22;45891;53.006;6.512;2022-07-15T12:32:11;22.90;73.80
60027;DHT22;45891;53.006;6.512;2022-07-15T12:37:14;22.70;70.10
60027;DHT22;45891;53.006;6.512;2022-07-15T12:40:08;22.30;70.70
60027;DHT22;45891;53.006;6.512;2022-07-15T12:45:18;21.90;74.30
60027;DHT22;45891;53.006;6.512;2022-07-15T12:53:00;21.70;75.80
60027;DHT22;45891;53.006;6.512;2022-07-15T12:55:31;21.40;74.00
60027;DHT22;45891;53.006;6.512;2022-07-15T12:58:09;21.30;75.00
60027;DHT22;45891;53.006;6.512;2022-07-15T13:00:37;21.10;75.90
60027;DHT22;45891;53.006;6.512;2022-07-15T13:03:08;21.00;77.00
60027;DHT22;45891;53.006;6.512;2022-07-15T13:05:40;21.00;79.00
60027;DHT22;45891;53.006;6.512;2022-07-15T13:08:18;20.80;80.20
60027;DHT22;45891;53.006;6.512;2022-07-15T13:10:48;20.80;81.40
60027;DHT22;45891;53.006;6.512;2022-07-15T13:13:17;20.60;82.10
60027;DHT22;45891;53.006;6.512;2022-07-15T13:15:44;20.60;83.10
60027;DHT22;45891;53.006;6.512;2022-07-15T13:18:12;20.50;83.60
60027;DHT22;45891;53.006;6.512;2022-07-15T13:20:40;20.40;84.30
60027;DHT22;45891;53.006;6.512;2022-07-15T13:23:06;20.50;84.00
60027;DHT22;45891;53.006;6.512;2022-07-15T13:25:33;20.60;84.90
60027;DHT22;45891;53.006;6.512;2022-07-15T13:28:03;20.60;85.10
60027;DHT22;45891;53.006;6.512;2022-07-15T13:30:29;20.70;85.10
60027;DHT22;45891;53.006;6.512;2022-07-15T13:32:55;20.90;85.00
60027;DHT22;45891;53.006;6.512;2022-07-15T13:35:22;20.80;84.60
60027;DHT22;45891;53.006;6.512;2022-07-15T13:37:48;20.80;84.90
60027;DHT22;45891;53.006;6.512;2022-07-15T13:40:14;20.70;85.00
60027;DHT22;45891;53.006;6.512;2022-07-15T13:42:41;20.70;85.40
60027;DHT22;45891;53.006;6.512;2022-07-15T13:45:08;20.70;85.70
60027;DHT22;45891;53.006;6.512;2022-07-15T13:47:35;20.80;85.90
60027;DHT22;45891;53.006;6.512;2022-07-15T13:50:05;20.60;85.00
60027;DHT22;45891;53.006;6.512;2022-07-15T13:52:52;20.40;83.70
60027;DHT22;45891;53.006;6.512;2022-07-15T13:55:20;20.50;84.60
60027;DHT22;45891;53.006;6.512;2022-07-15T13:57:46;21.00;84.40
60027;DHT22;45891;53.006;6.512;2022-07-15T14:00:16;21.30;84.30
60027;DHT22;45891;53.006;6.512;2022-07-15T14:02:43;21.60;82.80
60027;DHT22;45891;53.006;6.512;2022-07-15T14:05:13;21.70;82.20
60027;DHT22;45891;53.006;6.512;2022-07-15T14:07:40;21.70;80.60
60027;DHT22;45891;53.006;6.512;2022-07-15T14:10:07;21.60;82.00
60027;DHT22;45891;53.006;6.512;2022-07-15T14:12:34;21.50;83.10
60027;DHT22;45891;53.006;6.512;2022-07-15T14:15:00;21.40;83.20
60027;DHT22;45891;53.006;6.512;2022-07-15T14:17:27;21.20;83.40
60027;DHT22;45891;53.006;6.512;2022-07-15T14:19:54;21.00;85.10
60027;DHT22;45891;53.006;6.512;2022-07-15T14:22:22;20.90;86.00
60027;DHT22;45891;53.006;6.512;2022-07-15T14:24:48;20.60;86.50
60027;DHT22;45891;53.006;6.512;2022-07-15T14:27:14;20.60;87.50
60027;DHT22;45891;53.006;6.512;2022-07-15T14:29:41;20.50;87.60
60027;DHT22;45891;53.006;6.512;2022-07-15T14:32:07;20.50;88.00
60027;DHT22;45891;53.006;6.512;2022-07-15T14:34:33;20.40;88.00
60027;DHT22;45891;53.006;6.512;2022-07-15T14:37:00;20.50;88.40
60027;DHT22;45891;53.006;6.512;2022-07-15T14:39:26;20.50;88.50
60027;DHT22;45891;53.006;6.512;2022-07-15T14:41:52;20.70;89.00
60027;DHT22;45891;53.006;6.512;2022-07-15T14:44:18;20.90;89.40
60027;DHT22;45891;53.006;6.512;2022-07-15T14:46:44;21.00;88.20
60027;DHT22;45891;53.006;6.512;2022-07-15T14:49:10;21.20;87.80
60027;DHT22;45891;53.006;6.512;2022-07-15T14:51:37;21.30;87.30
60027;DHT22;45891;53.006;6.512;2022-07-15T14:54:03;21.30;86.80
60027;DHT22;45891;53.006;6.512;2022-07-15T14:56:29;21.20;86.80
60027;DHT22;45891;53.006;6.512;2022-07-15T14:58:56;21.10;86.10
60027;DHT22;45891;53.006;6.512;2022-07-15T15:01:23;21.20;85.80
60027;DHT22;45891;53.006;6.512;2022-07-15T15:03:49;21.20;86.90
60027;DHT22;45891;53.006;6.512;2022-07-15T15:06:16;21.20;87.40
60027;DHT22;45891;53.006;6.512;2022-07-15T15:08:42;21.10;87.10
60027;DHT22;45891;53.006;6.512;2022-07-15T15:11:08;21.10;87.90
60027;DHT22;45891;53.006;6.512;2022-07-15T15:13:34;21.10;88.60
60027;DHT22;45891;53.006;6.512;2022-07-15T15:16:00;21.10;88.70
60027;DHT22;45891;53.006;6.512;2022-07-15T15:18:26;21.20;88.70
60027;DHT22;45891;53.006;6.512;2022-07-15T15:20:52;21.20;88.70
60027;DHT22;45891;53.006;6.512;2022-07-15T15:23:19;21.10;88.40
60027;DHT22;45891;53.006;6.512;2022-07-15T15:25:45;20.90;88.30
60027;DHT22;45891;53.006;6.512;2022-07-15T15:28:30;20.90;89.60
60027;DHT22;45891;53.006;6.512;2022-07-15T15:30:56;20.70;89.90
60027;DHT22;45891;53.006;6.512;2022-07-15T15:33:22;20.80;90.00
60027;DHT22;45891;53.006;6.512;2022-07-15T15:35:48;20.80;90.10
60027;DHT22;45891;53.006;6.512;2022-07-15T15:38:14;21.00;90.10
60027;DHT22;45891;53.006;6.512;2022-07-15T15:40:40;21.10;90.10
60027;DHT22;45891;53.006;6.512;2022-07-15T15:43:07;21.20;89.70
60027;DHT22;45891;53.006;6.512;2022-07-15T15:45:33;21.30;89.20
60027;DHT22;45891;53.006;6.512;2022-07-15T15:47:59;21.30;89.00
60027;DHT22;45891;53.006;6.512;2022-07-15T15:50:25;21.10;89.60
60027;DHT22;45891;53.006;6.512;2022-07-15T15:52:52;21.10;89.40
60027;DHT22;45891;53.006;6.512;2022-07-15T15:55:18;21.10;89.80
60027;DHT22;45891;53.006;6.512;2022-07-15T15:57:44;21.10;90.20
60027;DHT22;45891;53.006;6.512;2022-07-15T16:00:11;21.10;90.20
60027;DHT22;45891;53.006;6.512;2022-07-15T16:02:39;21.10;90.10
60027;DHT22;45891;53.006;6.512;2022-07-15T16:05:06;21.10;89.30
60027;DHT22;45891;53.006;6.512;2022-07-15T16:07:33;21.00;89.30
60027;DHT22;45891;53.006;6.512;2022-07-15T16:09:59;20.90;90.00
60027;DHT22;45891;53.006;6.512;2022-07-15T16:12:25;20.70;88.90
60027;DHT22;45891;53.006;6.512;2022-07-15T16:14:52;20.60;89.50
60027;DHT22;45891;53.006;6.512;2022-07-15T16:17:18;20.60;90.20
60027;DHT22;45891;53.006;6.512;2022-07-15T16:19:44;20.80;90.40
60027;DHT22;45891;53.006;6.512;2022-07-15T16:22:10;20.90;90.60
60027;DHT22;45891;53.006;6.512;2022-07-15T16:24:55;21.00;90.50
60027;DHT22;45891;53.006;6.512;2022-07-15T16:27:21;20.90;90.30
60027;DHT22;45891;53.006;6.512;2022-07-15T16:29:47;20.80;90.50
60027;DHT22;45891;53.006;6.512;2022-07-15T16:32:13;20.70;90.50
60027;DHT22;45891;53.006;6.512;2022-07-15T16:34:39;20.50;90.90
60027;DHT22;45891;53.006;6.512;2022-07-15T16:37:05;20.40;91.20